Time;durP1;ratioP1;P1;durP2;ratioP2;P2;SDS_P1;SDS_P2;PMS_P1;PMS_P2;Temp;Humidity;BMP_temperature;BMP_pressure;BME280_temperature;BME280_humidity;BME280_pressure;Samples;Min_cycle;Max_cycle;Signal;HPM_P1;HPM_P2
2021/12/16 00:03:24;;;;;;;59.90;28.40;;;;;;;3.77;100.00;97932.05;107400;1288;41761;-75
2021/12/16 00:06:23;;;;;;;41.90;20.00;;;;;;;3.77;100.00;97933.67;107632;1284;50178;-75
2021/12/16 00:08:55;;;;;;;27.30;16.80;;;;;;;3.72;100.00;97929.92;107784;1284;41910;-75
2021/12/16 00:19:27;;;;;;;23.10;14.40;;;;;;;3.68;100.00;97933.98;107801;1283;29995;-75
2021/12/16 00:34:00;;;;;;;23.10;14.30;;;;;;;3.66;100.00;97904.45;107773;1283;33616;-74
2021/12/16 00:36:31;;;;;;;22.30;13.00;;;;;;;3.66;100.00;97905.15;107789;1283;35032;-75
2021/12/16 00:39:00;;;;;;;25.30;16.20;;;;;;;3.67;100.00;97903.67;107768;1284;38512;-75
2021/12/16 00:41:29;;;;;;;22.70;14.60;;;;;;;3.67;100.00;97902.83;107654;1284;31995;-75
2021/12/16 00:44:04;;;;;;;19.80;12.80;;;;;;;3.67;100.00;97897.73;107716;1284;35127;-75
2021/12/16 00:46:56;;;;;;;21.30;13.30;;;;;;;3.69;100.00;97902.86;107699;1283;28953;-75
2021/12/16 00:49:39;;;;;;;18.50;11.90;;;;;;;3.73;100.00;97908.67;107689;1284;32322;-75
2021/12/16 00:55:07;;;;;;;22.70;15.10;;;;;;;3.69;100.00;97917.15;107694;1284;32061;-75
2021/12/16 00:57:37;;;;;;;23.30;15.30;;;;;;;3.68;100.00;97923.44;107897;1284;35319;-74
2021/12/16 01:00:12;;;;;;;27.40;17.10;;;;;;;3.66;100.00;97920.70;107739;1283;37423;-75
2021/12/16 01:02:55;;;;;;;26.50;16.00;;;;;;;3.66;100.00;97919.34;107656;1283;39462;-75
2021/12/16 01:33:47;;;;;;;23.40;14.90;;;;;;;3.60;100.00;97907.41;107667;1282;42104;-74
2021/12/16 01:36:33;;;;;;;22.50;14.90;;;;;;;3.60;100.00;97906.64;107680;1284;33995;-74
2021/12/16 01:47:47;;;;;;;17.60;12.80;;;;;;;3.64;100.00;97886.59;107760;1284;40582;-74
2021/12/16 01:50:25;;;;;;;20.20;13.10;;;;;;;3.64;100.00;97882.19;107660;1283;43902;-75
2021/12/16 01:55:47;;;;;;;20.20;13.00;;;;;;;3.64;100.00;97873.84;107703;1283;32481;-75
2021/12/16 01:58:23;;;;;;;21.90;13.70;;;;;;;3.63;100.00;97868.15;107766;1283;31556;-75
2021/12/16 02:01:00;;;;;;;25.00;15.80;;;;;;;3.61;100.00;97865.81;107784;1284;34622;-75
2021/12/16 02:03:41;;;;;;;24.20;15.00;;;;;;;3.57;100.00;97858.36;107813;1283;29696;-75
2021/12/16 02:06:25;;;;;;;22.60;14.60;;;;;;;3.56;100.00;97859.27;107645;1284;35576;-75
2021/12/16 02:08:56;;;;;;;23.00;15.30;;;;;;;3.55;100.00;97857.60;107641;1284;45202;-75
2021/12/16 02:11:43;;;;;;;22.00;14.20;;;;;;;3.56;100.00;97854.90;107691;1284;32687;-75
2021/12/16 02:28:30;;;;;;;17.30;10.00;;;;;;;3.74;100.00;97837.80;107816;1284;35462;-75
2021/12/16 02:31:22;;;;;;;18.50;11.20;;;;;;;3.79;100.00;97838.77;107792;1283;30139;-75
2021/12/16 02:34:21;;;;;;;16.20;9.10;;;;;;;3.81;100.00;97834.48;107658;1284;35140;-75
2021/12/16 02:36:50;;;;;;;11.50;7.40;;;;;;;3.85;100.00;97834.00;107653;1283;41820;-75
2021/12/16 02:39:21;;;;;;;12.40;7.50;;;;;;;3.90;100.00;97829.75;107796;1284;28450;-75
2021/12/16 02:41:53;;;;;;;12.60;8.40;;;;;;;3.94;100.00;97832.13;107779;1283;30633;-75
2021/12/16 02:44:35;;;;;;;12.40;8.20;;;;;;;3.98;100.00;97830.70;107674;1284;29125;-75
2021/12/16 02:49:54;;;;;;;15.20;9.20;;;;;;;4.04;100.00;97824.66;107749;1283;44958;-75
2021/12/16 02:52:25;;;;;;;14.60;8.50;;;;;;;4.03;100.00;97826.36;107700;1284;48500;-75
2021/12/16 02:54:54;;;;;;;12.30;7.10;;;;;;;4.03;100.00;97826.77;107806;1279;29691;-75
2021/12/16 02:57:24;;;;;;;14.10;8.70;;;;;;;4.07;100.00;97822.20;107810;1282;31118;-75
2021/12/16 02:59:56;;;;;;;11.60;7.60;;;;;;;4.12;100.00;97821.66;107810;1284;30316;-75
2021/12/16 03:02:27;;;;;;;16.20;8.70;;;;;;;4.15;100.00;97817.41;107675;1283;34982;-75
2021/12/16 03:04:56;;;;;;;14.30;7.80;;;;;;;4.16;100.00;97819.75;107698;1284;37593;-75
2021/12/16 03:07:25;;;;;;;13.70;8.00;;;;;;;4.17;100.00;97820.95;107730;1284;38886;-75
2021/12/16 03:12:53;;;;;;;13.00;8.40;;;;;;;4.19;100.00;97827.77;107721;1284;45933;-75
2021/12/16 03:15:36;;;;;;;17.70;9.90;;;;;;;4.18;100.00;97824.17;107627;1283;40004;-75
2021/12/16 03:18:14;;;;;;;15.60;9.90;;;;;;;4.15;100.00;97825.13;107865;1284;32249;-75
2021/12/16 03:20:49;;;;;;;20.80;11.20;;;;;;;4.10;100.00;97829.10;107661;1283;53726;-75
2021/12/16 03:23:37;;;;;;;18.00;11.80;;;;;;;4.05;100.00;97830.47;107672;1283;36475;-75
2021/12/16 03:31:49;;;;;;;18.40;11.80;;;;;;;3.98;100.00;97840.60;107749;1284;31442;-75
2021/12/16 03:34:35;;;;;;;19.60;12.00;;;;;;;3.96;100.00;97843.91;107671;1284;43641;-74
2021/12/16 03:37:15;;;;;;;18.60;11.70;;;;;;;3.95;100.00;97844.81;107733;1283;31906;-74
2021/12/16 03:39:48;;;;;;;21.50;11.90;;;;;;;3.94;100.00;97842.70;107700;1283;34351;-75
2021/12/16 03:42:20;;;;;;;16.00;10.20;;;;;;;3.95;100.00;97838.06;107641;1283;53923;-75
2021/12/16 03:44:53;;;;;;;16.20;9.60;;;;;;;3.96;100.00;97842.77;107708;1284;29474;-75
2021/12/16 03:47:31;;;;;;;13.80;8.70;;;;;;;3.97;100.00;97842.58;107741;1283;28331;-75
2021/12/16 03:50:01;;;;;;;16.10;10.00;;;;;;;3.99;100.00;97836.39;107741;1282;37202;-75
2021/12/16 03:52:29;;;;;;;15.30;9.30;;;;;;;4.00;100.00;97829.28;107668;1284;36351;-74
2021/12/16 03:54:59;;;;;;;15.00;9.80;;;;;;;4.00;100.00;97829.08;107681;1283;32723;-75
2021/12/16 03:57:31;;;;;;;13.40;8.60;;;;;;;3.99;100.00;97830.23;107825;1278;32077;-74
2021/12/16 04:00:00;;;;;;;12.40;7.70;;;;;;;4.01;100.00;97828.55;107712;1284;31474;-75
2021/12/16 04:02:32;;;;;;;14.20;8.20;;;;;;;4.04;100.00;97829.02;107739;1283;36527;-74
2021/12/16 04:05:02;;;;;;;12.50;7.90;;;;;;;4.06;100.00;97833.98;107748;1281;30741;-75
2021/12/16 04:07:33;;;;;;;14.40;7.90;;;;;;;4.06;100.00;97834.54;107759;1283;39447;-74
2021/12/16 04:10:05;;;;;;;13.80;9.00;;;;;;;4.07;100.00;97833.38;107722;1283;27879;-75
2021/12/16 04:12:34;;;;;;;15.50;8.90;;;;;;;4.08;100.00;97833.45;107708;1284;28880;-75
2021/12/16 04:15:07;;;;;;;12.40;8.10;;;;;;;4.06;100.00;97830.70;107676;1284;37168;-75
2021/12/16 04:17:37;;;;;;;12.40;8.20;;;;;;;4.05;100.00;97828.89;107812;1283;39030;-75
2021/12/16 04:20:12;;;;;;;17.00;10.20;;;;;;;4.05;100.00;97836.08;107732;1284;36488;-75
2021/12/16 04:22:43;;;;;;;12.30;7.70;;;;;;;4.04;100.00;97840.94;107661;1282;52140;-75
2021/12/16 04:25:21;;;;;;;15.60;9.70;;;;;;;4.05;100.00;97843.14;107710;1284;34777;-75
2021/12/16 04:27:53;;;;;;;13.70;8.80;;;;;;;4.04;100.00;97853.57;107730;1284;38864;-75
2021/12/16 04:30:24;;;;;;;12.00;8.60;;;;;;;4.03;100.00;97853.21;107680;1284;31892;-74
2021/12/16 04:32:53;;;;;;;12.60;8.00;;;;;;;4.03;100.00;97855.06;107562;1284;42311;-75
2021/12/16 04:35:21;;;;;;;13.80;8.00;;;;;;;4.05;100.00;97851.46;107680;1282;39604;-75
2021/12/16 04:37:51;;;;;;;11.40;7.80;;;;;;;4.07;100.00;97855.83;107625;1283;39766;-75
2021/12/16 04:40:20;;;;;;;12.00;7.50;;;;;;;4.08;100.00;97853.19;107675;1284;33086;-75
2021/12/16 04:42:49;;;;;;;9.50;5.70;;;;;;;4.10;100.00;97853.29;107702;1284;35449;-75
2021/12/16 04:45:20;;;;;;;7.60;4.50;;;;;;;4.13;100.00;97854.45;107750;1283;31513;-75
2021/12/16 04:47:52;;;;;;;7.30;4.30;;;;;;;4.15;100.00;97856.65;107796;1282;27706;-75
2021/12/16 04:50:21;;;;;;;7.90;4.60;;;;;;;4.19;100.00;97848.31;107728;1278;35225;-75
2021/12/16 04:52:49;;;;;;;11.10;7.30;;;;;;;4.27;100.00;97852.50;107703;1284;33635;-75
2021/12/16 04:55:20;;;;;;;14.30;7.60;;;;;;;4.26;100.00;97854.29;107688;1283;31632;-75
2021/12/16 04:57:51;;;;;;;7.60;4.50;;;;;;;4.22;100.00;97858.69;107685;1284;40693;-75
2021/12/16 05:00:23;;;;;;;9.00;5.60;;;;;;;4.24;100.00;97856.83;107760;1283;39409;-74
2021/12/16 05:02:52;;;;;;;9.10;5.10;;;;;;;4.30;100.00;97859.67;107794;1283;29459;-74
2021/12/16 05:05:24;;;;;;;9.50;5.70;;;;;;;4.33;100.00;97867.33;107694;1284;31702;-74
2021/12/16 05:07:53;;;;;;;12.90;7.00;;;;;;;4.33;100.00;97863.98;107698;1283;36108;-75
2021/12/16 05:10:22;;;;;;;9.20;5.40;;;;;;;4.33;100.00;97864.63;107695;1284;37885;-75
2021/12/16 05:12:55;;;;;;;14.90;7.70;;;;;;;4.34;100.00;97863.45;107655;1282;43315;-75
2021/12/16 05:15:30;;;;;;;12.40;7.70;;;;;;;4.34;100.00;97864.74;107760;1278;30944;-75
2021/12/16 05:18:03;;;;;;;12.50;7.00;;;;;;;4.33;100.00;97870.64;107679;1282;38279;-75
2021/12/16 05:20:34;;;;;;;12.80;8.50;;;;;;;4.33;100.00;97871.25;107728;1283;29163;-75
2021/12/16 05:26:05;;;;;;;12.40;7.70;;;;;;;4.24;100.00;97879.58;107746;1279;35760;-75
2021/12/16 05:28:34;;;;;;;13.20;8.50;;;;;;;4.24;100.00;97881.95;107694;1284;44048;-75
2021/12/16 05:31:03;;;;;;;13.40;8.10;;;;;;;4.21;100.00;97880.85;107719;1284;38513;-75
2021/12/16 05:33:32;;;;;;;12.60;8.20;;;;;;;4.19;100.00;97882.99;107665;1283;38093;-74
2021/12/16 05:36:01;;;;;;;12.20;6.90;;;;;;;4.20;100.00;97885.21;107775;1284;31876;-75
2021/12/16 05:38:31;;;;;;;13.60;8.40;;;;;;;4.19;100.00;97884.82;107663;1282;42953;-75
2021/12/16 05:41:01;;;;;;;12.60;8.20;;;;;;;4.17;100.00;97892.17;107720;1284;31664;-75
2021/12/16 05:43:31;;;;;;;13.50;8.80;;;;;;;4.15;100.00;97892.83;107687;1284;38060;-75
2021/12/16 05:46:00;;;;;;;13.60;6.70;;;;;;;4.13;100.00;97894.02;107658;1281;41432;-74
2021/12/16 05:48:32;;;;;;;11.70;8.20;;;;;;;4.11;100.00;97893.24;107731;1284;28655;-75
2021/12/16 05:51:05;;;;;;;14.30;9.20;;;;;;;4.09;100.00;97895.59;107731;1284;44531;-75
2021/12/16 05:53:37;;;;;;;14.70;8.80;;;;;;;4.08;100.00;97896.55;107670;1282;51264;-74
2021/12/16 05:56:06;;;;;;;16.40;9.50;;;;;;;4.08;100.00;97896.70;107711;1283;47182;-75
2021/12/16 05:58:36;;;;;;;12.90;9.20;;;;;;;4.08;100.00;97899.19;107757;1283;29285;-75
2021/12/16 06:01:09;;;;;;;15.50;9.20;;;;;;;4.08;100.00;97899.84;107751;1284;35169;-75
2021/12/16 06:03:39;;;;;;;12.70;8.10;;;;;;;4.08;100.00;97896.89;107772;1283;38920;-75
2021/12/16 06:06:09;;;;;;;16.20;9.40;;;;;;;4.10;100.00;97899.15;107792;1282;44232;-74
2021/12/16 06:08:38;;;;;;;15.50;9.00;;;;;;;4.11;100.00;97904.95;107733;1283;37678;-74
2021/12/16 06:11:19;;;;;;;14.00;8.70;;;;;;;4.08;100.00;97903.05;107743;1282;36412;-74
2021/12/16 06:13:58;;;;;;;14.80;8.70;;;;;;;4.06;100.00;97905.88;107678;1283;37987;-75
2021/12/16 06:27:37;;;;;;;14.70;9.40;;;;;;;4.10;100.00;97911.74;107862;1283;26508;-75
2021/12/16 06:30:09;;;;;;;12.80;7.00;;;;;;;4.11;100.00;97916.50;107833;1283;32248;-74
2021/12/16 06:32:38;;;;;;;14.50;8.90;;;;;;;4.11;100.00;97912.59;107810;1283;39761;-75
2021/12/16 06:35:09;;;;;;;14.90;9.20;;;;;;;4.13;100.00;97912.45;107836;1283;36221;-74
2021/12/16 06:37:38;;;;;;;14.10;7.50;;;;;;;4.13;100.00;97910.08;107675;1284;28450;-74
2021/12/16 06:40:10;;;;;;;11.30;6.60;;;;;;;4.15;100.00;97914.10;107721;1282;36478;-74
2021/12/16 06:42:41;;;;;;;11.10;6.90;;;;;;;4.22;100.00;97912.80;107733;1284;30634;-75
2021/12/16 06:45:14;;;;;;;;;;;;;;;4.25;100.00;97915.79;107709;1281;31672;-75
2021/12/16 06:47:47;;;;;;;10.90;6.10;;;;;;;4.29;100.00;97918.84;107719;1283;41807;-75
2021/12/16 06:50:27;;;;;;;9.20;5.00;;;;;;;4.32;100.00;97919.64;107759;1282;41313;-75
2021/12/16 06:53:01;;;;;;;10.50;6.20;;;;;;;4.35;100.00;97924.76;107754;1283;33757;-75
2021/12/16 06:55:37;;;;;;;13.30;7.50;;;;;;;4.38;100.00;97923.64;107720;1281;43469;-75
2021/12/16 06:58:17;;;;;;;10.10;6.40;;;;;;;4.40;100.00;97933.41;107840;1282;29484;-75
2021/12/16 07:00:48;;;;;;;;;;;;;;;4.39;100.00;97932.16;107682;1282;37174;-75
2021/12/16 07:03:20;;;;;;;;;;;;;;;4.38;100.00;97932.84;107648;1282;35056;-75
2021/12/16 07:05:53;;;;;;;9.60;6.10;;;;;;;4.39;100.00;97929.41;107683;1282;37943;-75
2021/12/16 07:08:23;;;;;;;10.70;7.00;;;;;;;4.37;100.00;97929.85;107805;1284;30798;-75
2021/12/16 07:10:56;;;;;;;10.00;6.20;;;;;;;4.34;100.00;97929.85;107740;1282;31151;-75
2021/12/16 07:13:37;;;;;;;9.80;6.50;;;;;;;4.32;100.00;97927.71;107825;1284;29723;-75
2021/12/16 07:16:06;;;;;;;10.80;6.50;;;;;;;4.29;100.00;97926.27;107880;1283;38580;-75
2021/12/16 07:18:35;;;;;;;11.00;5.80;;;;;;;4.30;100.00;97929.38;107810;1282;33408;-75
2021/12/16 07:21:04;;;;;;;11.00;5.80;;;;;;;4.31;100.00;97928.04;107629;1282;42688;-75
2021/12/16 07:23:33;;;;;;;9.40;5.50;;;;;;;4.32;100.00;97930.58;107807;1282;33519;-74
2021/12/16 07:26:01;;;;;;;11.90;6.50;;;;;;;4.34;100.00;97928.08;107757;1283;35456;-75
2021/12/16 07:28:30;;;;;;;15.10;8.80;;;;;;;4.39;100.00;97928.84;107752;1283;39211;-74
2021/12/16 07:31:00;;;;;;;14.10;8.20;;;;;;;4.44;100.00;97926.35;107818;1282;29396;-74
2021/12/16 07:33:29;;;;;;;13.60;8.00;;;;;;;4.47;100.00;97925.41;107614;1278;177780;-75
2021/12/16 07:35:59;;;;;;;14.60;8.20;;;;;;;4.52;100.00;97923.59;107725;1283;46239;-75
2021/12/16 07:38:29;;;;;;;14.60;8.30;;;;;;;4.56;100.00;97920.55;107707;1279;38149;-75
2021/12/16 07:40:58;;;;;;;11.70;6.80;;;;;;;4.60;100.00;97924.04;107704;1283;36512;-75
2021/12/16 07:43:43;;;;;;;15.00;8.40;;;;;;;4.64;100.00;97926.83;107693;1283;54217;-75
2021/12/16 07:46:13;;;;;;;13.30;8.50;;;;;;;4.67;100.00;97929.61;107645;1281;35353;-75
2021/12/16 07:48:42;;;;;;;13.80;7.50;;;;;;;4.68;100.00;97924.84;107671;1282;34975;-75
2021/12/16 07:51:10;;;;;;;13.70;8.40;;;;;;;4.72;100.00;97923.96;107750;1284;32439;-75
2021/12/16 07:53:39;;;;;;;13.00;8.00;;;;;;;4.74;100.00;97921.55;107710;1284;32390;-74
2021/12/16 07:56:09;;;;;;;15.50;10.10;;;;;;;4.75;100.00;97919.65;107715;1281;40077;-75
2021/12/16 07:58:39;;;;;;;13.60;8.70;;;;;;;4.78;100.00;97920.02;107773;1282;44507;-74
2021/12/16 08:01:08;;;;;;;;;;;;;;;4.81;100.00;97919.25;107849;1282;30951;-75
2021/12/16 08:03:38;;;;;;;14.00;9.40;;;;;;;4.84;100.00;97913.93;107721;1283;41528;-75
2021/12/16 08:06:12;;;;;;;15.00;9.10;;;;;;;4.88;100.00;97915.84;107844;1282;38864;-75
2021/12/16 08:08:41;;;;;;;13.90;8.10;;;;;;;4.90;100.00;97913.52;107819;1282;28724;-75
2021/12/16 08:11:09;;;;;;;13.00;7.20;;;;;;;4.91;100.00;97907.13;107796;1282;36004;-75
2021/12/16 08:13:38;;;;;;;12.00;8.60;;;;;;;4.95;100.00;97897.59;107778;1283;34131;-75
2021/12/16 08:16:07;;;;;;;11.10;7.60;;;;;;;4.98;100.00;97898.05;107728;1282;35323;-75
2021/12/16 08:18:36;;;;;;;11.60;7.40;;;;;;;4.99;100.00;97895.95;107810;1283;39258;-75
2021/12/16 08:21:08;;;;;;;15.10;8.30;;;;;;;5.00;100.00;97893.23;107685;1284;29882;-74
2021/12/16 08:23:36;;;;;;;14.80;9.50;;;;;;;5.00;100.00;97890.88;107821;1283;31568;-75
2021/12/16 08:26:05;;;;;;;14.00;8.30;;;;;;;5.02;100.00;97891.52;107733;1283;31068;-74
2021/12/16 08:28:35;;;;;;;13.00;8.20;;;;;;;5.06;100.00;97895.17;107754;1281;39160;-75
2021/12/16 08:31:06;;;;;;;12.60;8.10;;;;;;;5.11;100.00;97894.19;107684;1281;33575;-75
2021/12/16 08:33:35;;;;;;;14.40;8.70;;;;;;;5.14;100.00;97897.88;107890;1283;28485;-75
2021/12/16 08:36:05;;;;;;;12.10;7.30;;;;;;;5.16;100.00;97897.66;107707;1281;38269;-75
2021/12/16 08:38:37;;;;;;;11.00;7.00;;;;;;;5.19;100.00;97904.23;107670;1282;43518;-75
2021/12/16 08:41:08;;;;;;;;;;;;;;;5.20;100.00;97902.00;107788;1283;36980;-75
2021/12/16 08:43:36;;;;;;;;;;;;;;;5.20;100.00;97903.48;107866;1279;32826;-75
2021/12/16 08:46:05;;;;;;;13.10;7.30;;;;;;;5.22;100.00;97905.67;107679;1283;35113;-74
2021/12/16 08:48:36;;;;;;;11.10;6.70;;;;;;;5.23;100.00;97908.88;107745;1282;38698;-75
2021/12/16 08:51:05;;;;;;;11.80;7.50;;;;;;;5.26;100.00;97909.42;107674;1283;42603;-74
2021/12/16 08:53:36;;;;;;;13.70;7.70;;;;;;;5.30;100.00;97911.13;107853;1283;40135;-75
2021/12/16 08:56:07;;;;;;;11.70;8.20;;;;;;;5.35;100.00;97908.30;107612;1281;40859;-75
2021/12/16 08:58:37;;;;;;;10.70;7.00;;;;;;;5.41;100.00;97904.23;107826;1284;32204;-75
2021/12/16 09:01:11;;;;;;;9.50;6.30;;;;;;;5.43;99.96;97893.55;107815;1283;32786;-74
2021/12/16 09:03:40;;;;;;;10.30;6.80;;;;;;;5.45;99.82;97895.00;107737;1283;30867;-75
2021/12/16 09:06:09;;;;;;;11.60;7.00;;;;;;;5.48;99.82;97898.66;107839;1284;33969;-75
2021/12/16 09:08:38;;;;;;;11.50;6.90;;;;;;;5.48;99.17;97893.35;107819;1283;33066;-75
2021/12/16 09:11:09;;;;;;;9.50;6.20;;;;;;;5.47;98.76;97895.70;107777;1281;29304;-75
2021/12/16 09:13:42;;;;;;;7.70;5.50;;;;;;;5.46;98.70;97892.28;107784;1283;33303;-75
2021/12/16 09:16:13;;;;;;;10.40;6.50;;;;;;;5.43;98.13;97889.72;107678;1281;38994;-75
2021/12/16 09:18:43;;;;;;;10.40;5.70;;;;;;;5.40;98.24;97890.27;107681;1282;36463;-76
2021/12/16 09:21:15;;;;;;;10.50;5.60;;;;;;;5.37;97.79;97891.50;107782;1282;29100;-75
2021/12/16 09:23:46;;;;;;;12.50;6.90;;;;;;;5.33;97.80;97887.14;107654;1284;52164;-75
2021/12/16 09:26:17;;;;;;;8.40;5.80;;;;;;;5.31;97.88;97880.29;107685;1283;33747;-74
2021/12/16 09:28:46;;;;;;;9.60;5.70;;;;;;;5.30;97.56;97873.94;107786;1282;29593;-74
2021/12/16 09:31:19;;;;;;;11.60;6.00;;;;;;;5.30;97.27;97873.38;107613;1283;36649;-75
2021/12/16 09:33:51;;;;;;;11.60;7.00;;;;;;;5.31;97.45;97869.89;107725;1283;29491;-75
2021/12/16 09:36:23;;;;;;;11.70;6.10;;;;;;;5.32;97.40;97862.45;107658;1283;37543;-75
2021/12/16 09:38:54;;;;;;;12.20;7.10;;;;;;;5.32;97.12;97863.09;107778;1282;39612;-74
2021/12/16 09:41:23;;;;;;;12.80;6.80;;;;;;;5.32;97.15;97861.79;107781;1282;31605;-75
2021/12/16 09:43:54;;;;;;;14.50;8.60;;;;;;;5.34;97.24;97859.80;107704;1284;29563;-75
2021/12/16 09:46:23;;;;;;;;;;;;;;;5.37;97.39;97856.84;107737;1282;30804;-75
2021/12/16 09:48:52;;;;;;;11.90;7.90;;;;;;;5.37;97.19;97855.46;107722;1283;37898;-75
2021/12/16 09:51:24;;;;;;;14.90;8.00;;;;;;;5.39;97.21;97856.63;107615;1283;44752;-75
2021/12/16 09:54:05;;;;;;;11.80;6.90;;;;;;;5.41;96.99;97857.94;107683;1283;43041;-75
2021/12/16 09:56:39;;;;;;;13.20;7.70;;;;;;;5.41;96.98;97857.38;107731;1283;31764;-74
2021/12/16 09:59:12;;;;;;;11.10;6.50;;;;;;;5.40;96.78;97861.06;107710;1281;44075;-75
2021/12/16 10:01:43;;;;;;;13.40;8.10;;;;;;;5.36;96.42;97863.23;107757;1282;40811;-75
2021/12/16 10:04:13;;;;;;;;;;;;;;;5.35;96.72;97863.84;107711;1281;38205;-75
2021/12/16 10:06:43;;;;;;;15.20;9.00;;;;;;;5.35;96.39;97865.88;107665;1281;35913;-75
2021/12/16 10:09:13;;;;;;;13.90;8.60;;;;;;;5.32;96.49;97862.52;107671;1283;37487;-75
2021/12/16 10:11:49;;;;;;;8.00;5.80;;;;;;;5.33;96.28;97859.33;107707;1283;30224;-75
2021/12/16 10:14:32;;;;;;;13.30;8.30;;;;;;;5.32;96.32;97854.15;107683;1281;38766;-75
2021/12/16 10:19:49;;;;;;;12.90;8.60;;;;;;;5.32;96.36;97851.64;107683;1284;33825;-75
2021/12/16 10:22:25;;;;;;;10.60;6.60;;;;;;;5.35;96.44;97839.73;107694;1283;37277;-75
2021/12/16 10:24:56;;;;;;;14.80;8.20;;;;;;;5.39;96.07;97840.16;107702;1283;34385;-75
2021/12/16 10:27:28;;;;;;;11.80;5.80;;;;;;;5.43;96.02;97834.09;107673;1284;32830;-75
2021/12/16 10:30:00;;;;;;;12.20;8.20;;;;;;;5.45;95.86;97829.21;107709;1283;30502;-75
2021/12/16 10:32:37;;;;;;;16.30;9.50;;;;;;;5.49;96.11;97829.78;107680;1283;41631;-75
2021/12/16 10:35:11;;;;;;;7.50;5.40;;;;;;;5.51;96.14;97828.05;107684;1282;34466;-75
2021/12/16 10:37:43;;;;;;;13.70;8.30;;;;;;;5.54;96.03;97824.69;107888;1283;42142;-74
2021/12/16 10:40:27;;;;;;;13.40;8.10;;;;;;;5.56;95.95;97827.45;107703;1282;38855;-75
2021/12/16 10:42:58;;;;;;;11.90;7.90;;;;;;;5.60;95.98;97822.56;107787;1283;39649;-75
2021/12/16 10:45:30;;;;;;;13.20;8.30;;;;;;;5.64;95.77;97826.30;107663;1282;34774;-75
2021/12/16 10:48:24;;;;;;;10.90;7.10;;;;;;;5.68;95.88;97823.77;107682;1281;38262;-75
2021/12/16 10:51:19;;;;;;;14.50;8.30;;;;;;;5.70;95.66;97827.14;107667;1282;38262;-75
2021/12/16 10:54:11;;;;;;;9.80;6.60;;;;;;;5.69;95.55;97828.48;107795;1278;31090;-75
2021/12/16 10:56:44;;;;;;;12.00;8.30;;;;;;;5.61;95.15;97827.09;107746;1284;32633;-74
2021/12/16 10:59:17;;;;;;;11.20;7.20;;;;;;;5.56;95.00;97833.13;107785;1282;35576;-75
2021/12/16 11:01:54;;;;;;;13.30;8.00;;;;;;;5.52;94.76;97828.80;107675;1283;42220;-75
2021/12/16 11:04:27;;;;;;;24.20;12.20;;;;;;;5.49;94.50;97827.73;107669;1284;32972;-74
2021/12/16 11:06:59;;;;;;;11.90;7.90;;;;;;;5.48;94.52;97823.96;107663;1284;40718;-74
2021/12/16 11:10:04;;;;;;;12.90;8.30;;;;;;;5.45;94.50;97833.46;107750;1283;29936;-74
2021/12/16 11:12:46;;;;;;;12.20;6.70;;;;;;;5.44;94.55;97838.73;107780;1282;35651;-74
2021/12/16 11:15:21;;;;;;;14.50;9.80;;;;;;;5.41;94.38;97833.09;107779;1283;32066;-74
2021/12/16 11:17:52;;;;;;;13.10;7.40;;;;;;;5.43;94.68;97835.02;107679;1283;31307;-75
2021/12/16 11:20:27;;;;;;;14.10;9.20;;;;;;;5.45;94.78;97829.73;107627;1283;39456;-74
2021/12/16 11:22:59;;;;;;;13.60;9.20;;;;;;;5.49;94.73;97833.11;107744;1282;29735;-74
2021/12/16 11:25:30;;;;;;;14.60;9.90;;;;;;;5.49;94.74;97832.70;107664;1281;45056;-74
2021/12/16 11:28:10;;;;;;;18.00;10.70;;;;;;;5.48;94.74;97834.96;107707;1283;28199;-74
2021/12/16 11:30:44;;;;;;;17.80;9.80;;;;;;;5.49;94.60;97834.11;107831;1282;37687;-74
2021/12/16 11:33:23;;;;;;;16.90;9.30;;;;;;;5.49;94.65;97838.13;107698;1282;28213;-75
2021/12/16 11:36:08;;;;;;;13.80;7.80;;;;;;;5.48;94.48;97838.73;107681;1282;30424;-74
2021/12/16 11:38:40;;;;;;;19.30;10.60;;;;;;;5.46;94.66;97832.60;107847;1282;31774;-74
2021/12/16 11:41:19;;;;;;;15.80;9.20;;;;;;;5.44;94.77;97827.96;107747;1284;38712;-74
2021/12/16 11:44:16;;;;;;;11.10;8.00;;;;;;;5.43;95.11;97817.73;107822;1282;28183;-74
2021/12/16 11:46:49;;;;;;;18.60;11.40;;;;;;;5.44;95.45;97817.98;107691;1283;29712;-75
2021/12/16 11:49:24;;;;;;;15.60;9.70;;;;;;;5.44;95.58;97819.35;107724;1283;27366;-75
2021/12/16 11:51:58;;;;;;;21.90;12.30;;;;;;;5.45;95.99;97816.78;107724;1283;35600;-75
2021/12/16 11:54:30;;;;;;;12.60;7.40;;;;;;;5.44;96.07;97816.48;107736;1282;32371;-75
2021/12/16 11:57:02;;;;;;;12.00;6.00;;;;;;;5.41;96.49;97810.69;107720;1283;37080;-75
2021/12/16 11:59:35;;;;;;;11.70;7.60;;;;;;;5.40;96.76;97803.21;107654;1283;45053;-75
2021/12/16 12:02:06;;;;;;;10.50;6.30;;;;;;;5.40;96.46;97807.02;107708;1283;34904;-75
2021/12/16 12:04:37;;;;;;;9.50;5.70;;;;;;;5.39;96.84;97803.52;107625;1282;39260;-74
2021/12/16 12:07:14;;;;;;;11.20;5.90;;;;;;;5.33;96.95;97804.17;107692;1283;44884;-75
2021/12/16 12:09:46;;;;;;;10.80;6.30;;;;;;;5.28;97.39;97808.92;107728;1283;28269;-75
2021/12/16 12:12:16;;;;;;;8.70;5.00;;;;;;;5.26;97.68;97805.59;107668;1281;29510;-75
2021/12/16 12:14:45;;;;;;;12.80;7.80;;;;;;;5.25;97.78;97806.92;107677;1284;32290;-75
2021/12/16 12:17:21;;;;;;;9.10;5.90;;;;;;;5.24;98.07;97803.63;107684;1284;31051;-75
2021/12/16 12:19:51;;;;;;;5.60;3.80;;;;;;;5.24;98.18;97806.14;107712;1283;34895;-75
2021/12/16 12:22:25;;;;;;;9.00;5.30;;;;;;;5.22;98.48;97813.31;107636;1283;39530;-75
2021/12/16 12:24:54;;;;;;;7.50;4.80;;;;;;;5.21;98.56;97818.70;107811;1284;35234;-75
2021/12/16 12:27:25;;;;;;;6.30;3.90;;;;;;;5.20;98.59;97819.41;107789;1283;29227;-75
2021/12/16 12:29:57;;;;;;;8.00;4.60;;;;;;;5.17;98.74;97822.88;107699;1282;30513;-75
2021/12/16 12:32:31;;;;;;;7.30;5.00;;;;;;;5.15;98.76;97819.38;107766;1283;45109;-75
2021/12/16 12:35:06;;;;;;;7.10;4.20;;;;;;;5.15;98.86;97818.20;107795;1282;30358;-75
2021/12/16 12:37:43;;;;;;;5.40;3.80;;;;;;;5.13;99.01;97817.05;107677;1281;28136;-75
2021/12/16 12:40:16;;;;;;;8.60;4.90;;;;;;;5.11;99.27;97816.71;107795;1283;39404;-75
2021/12/16 12:42:47;;;;;;;6.20;4.60;;;;;;;5.07;99.46;97815.67;107687;1284;38625;-75
2021/12/16 12:45:19;;;;;;;8.30;4.50;;;;;;;5.04;99.73;97816.73;107666;1283;46867;-75
2021/12/16 12:47:51;;;;;;;4.60;3.50;;;;;;;5.02;99.98;97812.63;107651;1282;35085;-75
2021/12/16 12:50:25;;;;;;;7.00;4.60;;;;;;;5.01;100.00;97810.74;107699;1283;31539;-75
2021/12/16 12:52:56;;;;;;;6.60;3.80;;;;;;;4.99;100.00;97805.86;107807;1283;38576;-75
2021/12/16 12:55:29;;;;;;;5.50;3.60;;;;;;;5.00;100.00;97803.52;107675;1282;27194;-75
2021/12/16 12:58:05;;;;;;;7.30;4.00;;;;;;;5.00;100.00;97800.56;107658;1283;46604;-75
2021/12/16 13:00:36;;;;;;;6.00;4.20;;;;;;;4.98;100.00;97803.58;107670;1283;31803;-75
2021/12/16 13:03:08;;;;;;;5.60;3.00;;;;;;;4.97;100.00;97802.33;107804;1281;33085;-75
2021/12/16 13:05:37;;;;;;;4.40;2.70;;;;;;;4.96;100.00;97802.54;107775;1284;31139;-75
2021/12/16 13:08:08;;;;;;;6.40;3.60;;;;;;;4.94;100.00;97806.08;107687;1283;30468;-75
2021/12/16 13:10:41;;;;;;;6.00;3.40;;;;;;;4.92;100.00;97809.34;107881;1283;28695;-75
2021/12/16 13:13:32;;;;;;;5.60;2.90;;;;;;;4.91;100.00;97813.88;107766;1281;34797;-75
2021/12/16 13:25:02;;;;;;;6.70;4.00;;;;;;;4.87;100.00;97812.48;107634;1284;48945;-75
2021/12/16 13:27:38;;;;;;;2.90;2.40;;;;;;;4.88;100.00;97815.59;107648;1283;37908;-75
2021/12/16 13:30:20;;;;;;;7.30;4.60;;;;;;;4.87;100.00;97809.66;107836;1282;38504;-76
2021/12/16 13:33:16;;;;;;;6.70;4.10;;;;;;;4.84;100.00;97799.55;107747;1283;34975;-76
2021/12/16 13:35:50;;;;;;;7.40;4.20;;;;;;;4.82;100.00;97795.03;107692;1282;40869;-76
2021/12/16 13:38:21;;;;;;;6.90;4.50;;;;;;;4.81;100.00;97789.34;107637;1284;33564;-76
2021/12/16 13:40:51;;;;;;;4.30;2.30;;;;;;;4.81;100.00;97795.12;107832;1283;31139;-76
2021/12/16 13:43:29;;;;;;;4.20;3.00;;;;;;;4.81;100.00;97798.39;107772;1283;36712;-76
2021/12/16 13:46:17;;;;;;;5.40;3.50;;;;;;;4.82;100.00;97802.63;107650;1283;39039;-76